Time;durP1;ratioP1;P1;durP2;ratioP2;P2;SDS_P1;SDS_P2;PMS_P1;PMS_P2;Temp;Humidity;BMP_temperature;BMP_pressure;BME280_temperature;BME280_humidity;BME280_pressure;Samples;Min_cycle;Max_cycle;Signal;HPM_P1;HPM_P2
2021/09/07 00:00:18;;;;;;;14.40;12.00;;;16.40;12.10;;;;;;5081035;28;20036;-72
2021/09/07 00:02:47;;;;;;;14.95;12.02;;;16.30;12.10;;;;;;5076653;28;20539;-71
2021/09/07 00:05:16;;;;;;;15.77;11.82;;;16.20;12.90;;;;;;5065884;28;20059;-71
2021/09/07 00:07:44;;;;;;;16.40;11.55;;;16.10;14.30;;;;;;5076861;28;20119;-71
2021/09/07 00:10:14;;;;;;;16.60;11.48;;;16.00;14.60;;;;;;5077400;28;20040;-72
2021/09/07 00:12:43;;;;;;;17.45;12.18;;;16.00;15.50;;;;;;5082180;28;20044;-71
2021/09/07 00:15:15;;;;;;;15.05;11.07;;;16.00;15.30;;;;;;5077755;28;20136;-71
2021/09/07 00:17:47;;;;;;;13.93;10.45;;;15.80;16.20;;;;;;5055392;28;20040;-73
2021/09/07 00:20:16;;;;;;;15.77;11.10;;;15.70;19.40;;;;;;5075361;28;20121;-71
2021/09/07 00:22:45;;;;;;;15.52;11.75;;;15.70;18.90;;;;;;5082078;28;20055;-72
2021/09/07 00:25:16;;;;;;;16.30;11.60;;;15.60;19.40;;;;;;5084084;28;20040;-72
2021/09/07 00:27:44;;;;;;;14.25;11.30;;;15.60;20.00;;;;;;5077849;28;20060;-72
2021/09/07 00:30:13;;;;;;;16.42;11.02;;;15.60;19.80;;;;;;5062940;28;20472;-72
2021/09/07 00:32:41;;;;;;;16.92;11.88;;;15.60;20.50;;;;;;5079939;28;20040;-71
2021/09/07 00:35:16;;;;;;;16.45;12.18;;;15.60;20.20;;;;;;5078525;28;20806;-71
2021/09/07 00:37:44;;;;;;;15.43;12.05;;;15.60;20.40;;;;;;5055640;28;20108;-71
2021/09/07 00:40:14;;;;;;;16.55;12.25;;;15.60;20.60;;;;;;5058655;28;20040;-71
2021/09/07 00:42:42;;;;;;;16.73;12.15;;;15.60;20.60;;;;;;5076689;28;20048;-71
2021/09/07 00:45:12;;;;;;;17.15;12.23;;;15.60;20.50;;;;;;5079692;28;20106;-69
2021/09/07 00:47:41;;;;;;;16.83;12.00;;;15.70;20.70;;;;;;5074901;28;20044;-71
2021/09/07 00:50:10;;;;;;;17.67;11.93;;;15.70;20.00;;;;;;5060961;28;20526;-71
2021/09/07 00:52:41;;;;;;;19.63;12.63;;;15.60;19.90;;;;;;5076347;28;20123;-72
2021/09/07 00:55:11;;;;;;;17.27;12.23;;;15.60;20.00;;;;;;5076956;28;20114;-71
2021/09/07 00:57:40;;;;;;;14.98;12.38;;;15.70;19.30;;;;;;5073211;28;20554;-70
2021/09/07 01:00:10;;;;;;;18.70;13.50;;;15.70;19.10;;;;;;5079731;28;20478;-71
2021/09/07 01:02:39;;;;;;;16.58;13.05;;;15.70;19.30;;;;;;5078900;28;20048;-72
2021/09/07 01:05:08;;;;;;;16.67;12.55;;;15.70;19.20;;;;;;5080981;28;20052;-72
2021/09/07 01:07:37;;;;;;;17.77;12.98;;;15.70;19.00;;;;;;5072446;28;20110;-71
2021/09/07 01:10:10;;;;;;;18.63;14.00;;;15.70;19.00;;;;;;5078815;28;20060;-71
2021/09/07 01:12:39;;;;;;;19.15;14.05;;;15.70;18.90;;;;;;5077111;28;20388;-71
2021/09/07 01:15:08;;;;;;;21.77;14.32;;;15.70;18.50;;;;;;5080940;28;20071;-72
2021/09/07 01:17:37;;;;;;;19.27;13.63;;;15.70;18.50;;;;;;5073519;28;20044;-71
2021/09/07 01:20:06;;;;;;;19.83;14.35;;;15.70;18.50;;;;;;5078255;28;20097;-71
2021/09/07 01:22:34;;;;;;;17.10;13.05;;;15.70;17.90;;;;;;5059276;28;20076;-71
2021/09/07 01:25:10;;;;;;;15.30;12.90;;;15.70;17.70;;;;;;5075606;28;20798;-71
2021/09/07 01:27:38;;;;;;;18.20;12.85;;;15.70;18.10;;;;;;5074226;28;20078;-70
2021/09/07 01:30:07;;;;;;;16.55;13.27;;;15.60;18.50;;;;;;5079479;28;20113;-70
2021/09/07 01:32:35;;;;;;;19.77;13.38;;;15.60;18.70;;;;;;5076463;28;20076;-72
2021/09/07 01:35:04;;;;;;;19.35;13.85;;;15.60;18.80;;;;;;5075517;28;20052;-71
2021/09/07 01:37:38;;;;;;;17.75;13.00;;;15.60;18.80;;;;;;5072876;28;20053;-71
2021/09/07 01:40:09;;;;;;;17.92;13.45;;;15.60;18.90;;;;;;5056910;28;20123;-71
2021/09/07 01:42:37;;;;;;;17.80;13.43;;;15.60;18.90;;;;;;5076511;28;20052;-70
2021/09/07 01:45:08;;;;;;;18.80;13.75;;;15.60;18.90;;;;;;5076956;28;20085;-72
2021/09/07 01:47:39;;;;;;;18.95;13.73;;;15.50;19.30;;;;;;5074870;28;20040;-72
2021/09/07 01:50:09;;;;;;;18.88;13.77;;;15.60;18.90;;;;;;5078925;28;20499;-71
2021/09/07 01:52:37;;;;;;;19.45;14.88;;;15.60;18.90;;;;;;5080886;28;20072;-71
2021/09/07 01:55:05;;;;;;;20.40;14.60;;;15.50;18.80;;;;;;5078006;28;20048;-71
2021/09/07 01:57:35;;;;;;;19.70;14.15;;;15.50;19.40;;;;;;5073697;28;20037;-71
2021/09/07 02:00:03;;;;;;;18.05;13.07;;;15.50;19.50;;;;;;5085665;28;20442;-71
2021/09/07 02:02:31;;;;;;;22.58;13.93;;;15.40;19.30;;;;;;5085162;28;20044;-72
2021/09/07 02:05:00;;;;;;;16.20;12.95;;;15.40;19.50;;;;;;5081055;28;20059;-71
2021/09/07 02:07:28;;;;;;;18.23;13.45;;;15.40;19.50;;;;;;5081507;28;20156;-70
2021/09/07 02:09:56;;;;;;;18.73;13.60;;;15.30;20.00;;;;;;5084880;28;20130;-70
2021/09/07 02:12:24;;;;;;;19.05;13.68;;;15.30;20.40;;;;;;5086353;28;20074;-71
2021/09/07 02:14:53;;;;;;;18.58;13.43;;;15.30;20.70;;;;;;5085856;28;20514;-71
2021/09/07 02:17:24;;;;;;;18.15;13.02;;;15.20;20.70;;;;;;5075765;28;20495;-71
2021/09/07 02:19:52;;;;;;;16.85;12.93;;;15.20;21.10;;;;;;5080575;28;20063;-71
2021/09/07 02:22:21;;;;;;;16.90;12.98;;;15.10;21.20;;;;;;5080129;28;20056;-71
2021/09/07 02:24:49;;;;;;;15.05;12.68;;;15.10;21.70;;;;;;5050418;28;20101;-71
2021/09/07 02:27:17;;;;;;;16.25;12.63;;;15.00;21.40;;;;;;5077979;28;20110;-71
2021/09/07 02:29:45;;;;;;;17.45;12.55;;;15.10;21.70;;;;;;5080974;28;20059;-71
2021/09/07 02:32:15;;;;;;;16.65;13.18;;;15.10;21.50;;;;;;5084706;28;20055;-71
2021/09/07 02:34:43;;;;;;;19.10;12.70;;;15.10;21.50;;;;;;5078542;28;20576;-71
2021/09/07 02:37:11;;;;;;;17.85;13.10;;;15.00;22.00;;;;;;5075540;28;20056;-71
2021/09/07 02:39:39;;;;;;;18.10;13.60;;;15.00;21.90;;;;;;5079376;28;20047;-70
2021/09/07 02:42:10;;;;;;;17.33;13.05;;;15.00;22.00;;;;;;5081909;28;20040;-70
2021/09/07 02:44:38;;;;;;;21.60;13.25;;;14.90;22.50;;;;;;5084854;28;20519;-71
2021/09/07 02:47:06;;;;;;;16.65;12.07;;;14.70;24.10;;;;;;5077640;28;20076;-70
2021/09/07 02:49:35;;;;;;;17.02;12.68;;;14.60;25.60;;;;;;5081267;28;20044;-71
2021/09/07 02:52:04;;;;;;;14.45;12.32;;;14.60;25.80;;;;;;5084468;28;20085;-71
2021/09/07 02:54:32;;;;;;;18.25;13.05;;;14.30;27.10;;;;;;5066152;28;20144;-71
2021/09/07 02:57:01;;;;;;;17.45;12.50;;;14.40;27.80;;;;;;5074124;28;20335;-71
2021/09/07 02:59:28;;;;;;;15.75;12.95;;;14.30;28.10;;;;;;5061258;28;20076;-71
2021/09/07 03:01:56;;;;;;;16.35;12.95;;;14.10;28.90;;;;;;5082778;28;20040;-71
2021/09/07 03:04:25;;;;;;;16.75;12.25;;;14.10;30.60;;;;;;5084507;28;20055;-71
2021/09/07 03:06:55;;;;;;;22.08;13.05;;;14.10;30.80;;;;;;5078248;28;20176;-71
2021/09/07 03:09:23;;;;;;;16.77;13.70;;;14.10;31.00;;;;;;5080742;28;20048;-71
2021/09/07 03:11:51;;;;;;;16.63;12.95;;;14.20;31.20;;;;;;5061409;28;20054;-71
2021/09/07 03:14:19;;;;;;;25.10;14.52;;;14.20;31.20;;;;;;5082482;28;20083;-71
2021/09/07 03:16:47;;;;;;;19.13;15.00;;;14.30;30.60;;;;;;5079495;28;20495;-71
2021/09/07 03:19:15;;;;;;;19.52;15.25;;;14.30;29.90;;;;;;5075255;28;20052;-71
2021/09/07 03:21:47;;;;;;;18.65;14.13;;;14.40;29.80;;;;;;5051936;28;20159;-71
2021/09/07 03:24:16;;;;;;;21.73;14.75;;;14.40;28.80;;;;;;5084870;28;20075;-71
2021/09/07 03:26:44;;;;;;;18.90;14.40;;;14.50;28.60;;;;;;5077968;28;20044;-71
2021/09/07 03:29:12;;;;;;;19.35;14.70;;;14.50;28.50;;;;;;5080451;28;20048;-71
2021/09/07 03:31:40;;;;;;;21.63;16.25;;;14.50;27.90;;;;;;5083601;28;20543;-71
2021/09/07 03:34:08;;;;;;;23.27;15.52;;;14.50;27.10;;;;;;5083812;28;20044;-71
2021/09/07 03:36:36;;;;;;;25.38;16.40;;;14.50;26.90;;;;;;5081456;28;20151;-71
2021/09/07 03:39:04;;;;;;;23.67;17.33;;;14.50;26.90;;;;;;5078392;28;20113;-71
2021/09/07 03:41:34;;;;;;;23.85;17.23;;;14.50;26.30;;;;;;5083050;28;20109;-71
2021/09/07 03:44:02;;;;;;;25.73;15.95;;;14.50;26.10;;;;;;5081610;28;20218;-71
2021/09/07 03:46:30;;;;;;;24.05;16.58;;;14.50;25.50;;;;;;5081582;28;20048;-69
2021/09/07 03:48:58;;;;;;;23.38;16.30;;;14.60;25.30;;;;;;5074458;28;20060;-71
2021/09/07 03:51:26;;;;;;;23.98;16.40;;;14.50;25.20;;;;;;5079881;28;20048;-72
2021/09/07 03:53:54;;;;;;;22.08;15.98;;;14.60;25.20;;;;;;5083140;28;20105;-70
2021/09/07 03:56:22;;;;;;;27.05;16.20;;;14.60;24.90;;;;;;5079955;28;20040;-70
2021/09/07 03:58:51;;;;;;;21.17;16.23;;;14.60;24.40;;;;;;5072325;28;20137;-71
2021/09/07 04:01:20;;;;;;;22.05;16.20;;;14.50;23.90;;;;;;5080376;28;20112;-71
2021/09/07 04:03:48;;;;;;;20.75;15.60;;;14.40;25.00;;;;;;5082427;28;20055;-71
2021/09/07 04:06:16;;;;;;;20.05;16.35;;;14.50;24.70;;;;;;5083017;28;20044;-72
2021/09/07 04:08:44;;;;;;;21.30;16.00;;;14.50;24.50;;;;;;5072623;28;20048;-71
2021/09/07 04:11:12;;;;;;;21.08;16.63;;;14.50;23.70;;;;;;5080443;28;20094;-70
2021/09/07 04:13:40;;;;;;;18.50;15.63;;;14.50;23.70;;;;;;5083326;28;20223;-70
2021/09/07 04:16:09;;;;;;;18.20;15.15;;;14.50;23.60;;;;;;5081315;28;20129;-70
2021/09/07 04:18:37;;;;;;;17.92;14.68;;;14.50;24.20;;;;;;5077526;28;20051;-70
2021/09/07 04:21:08;;;;;;;21.52;15.88;;;14.50;23.30;;;;;;5075641;28;20052;-71
2021/09/07 04:23:36;;;;;;;22.63;15.25;;;14.50;23.90;;;;;;5079897;28;20056;-71
2021/09/07 04:26:05;;;;;;;21.65;15.10;;;14.50;23.70;;;;;;5080089;28;20113;-71
2021/09/07 04:28:33;;;;;;;19.58;14.35;;;14.40;23.70;;;;;;5076997;28;20064;-71
2021/09/07 04:31:00;;;;;;;18.80;14.65;;;14.40;23.30;;;;;;5075887;28;20509;-72
2021/09/07 04:33:30;;;;;;;18.60;13.93;;;14.50;22.80;;;;;;5082196;28;20070;-71
2021/09/07 04:35:58;;;;;;;19.45;14.90;;;14.40;22.50;;;;;;5062645;28;20048;-71
2021/09/07 04:38:26;;;;;;;19.20;14.45;;;14.40;22.80;;;;;;5062773;28;20052;-70
2021/09/07 04:40:54;;;;;;;20.20;14.25;;;14.40;22.80;;;;;;5075183;28;20135;-69
2021/09/07 04:43:22;;;;;;;18.00;14.02;;;14.40;23.30;;;;;;5083046;28;20105;-70
2021/09/07 04:45:50;;;;;;;21.13;14.30;;;14.40;22.60;;;;;;5081933;28;20080;-71
2021/09/07 04:48:18;;;;;;;19.52;14.95;;;14.40;22.20;;;;;;5078135;28;20118;-71
2021/09/07 04:50:47;;;;;;;24.10;14.35;;;14.40;21.60;;;;;;5078379;28;20095;-70
2021/09/07 04:53:15;;;;;;;18.25;14.18;;;14.50;21.60;;;;;;5050483;28;20052;-71
2021/09/07 04:55:43;;;;;;;21.95;15.07;;;14.50;21.10;;;;;;5079738;28;20156;-70
2021/09/07 04:58:12;;;;;;;17.58;14.27;;;14.40;21.50;;;;;;5075610;28;20040;-71
2021/09/07 05:00:41;;;;;;;26.38;15.57;;;14.40;21.40;;;;;;5077706;28;20359;-72
2021/09/07 05:03:09;;;;;;;21.38;14.70;;;14.50;21.60;;;;;;5080276;28;20117;-71
2021/09/07 05:05:37;;;;;;;19.90;14.00;;;14.40;22.00;;;;;;5079508;28;20683;-71
2021/09/07 05:08:07;;;;;;;18.83;14.63;;;14.40;22.40;;;;;;5073532;28;20044;-72
2021/09/07 05:10:35;;;;;;;18.63;14.27;;;14.40;22.20;;;;;;5077451;28;20052;-71
2021/09/07 05:13:03;;;;;;;18.77;14.63;;;14.40;22.10;;;;;;5085293;28;20055;-71
2021/09/07 05:15:31;;;;;;;20.48;14.27;;;14.50;22.10;;;;;;5082717;28;20489;-70
2021/09/07 05:18:00;;;;;;;21.00;13.82;;;14.50;21.80;;;;;;5075642;28;20036;-70
2021/09/07 05:20:28;;;;;;;22.17;14.50;;;14.40;21.60;;;;;;5077453;28;20411;-71
2021/09/07 05:22:56;;;;;;;19.10;14.98;;;14.40;21.60;;;;;;5078866;28;20044;-71
2021/09/07 05:25:28;;;;;;;20.90;15.02;;;14.40;21.60;;;;;;5080011;28;20075;-70
2021/09/07 05:27:57;;;;;;;26.75;16.15;;;14.50;21.60;;;;;;5056745;28;20053;-71
2021/09/07 05:30:25;;;;;;;29.83;17.02;;;14.50;21.60;;;;;;5073885;28;20677;-71
2021/09/07 05:32:53;;;;;;;20.63;15.23;;;14.70;21.50;;;;;;5080995;28;20132;-71
2021/09/07 05:35:21;;;;;;;20.40;14.15;;;14.60;19.90;;;;;;5079857;28;20040;-71
2021/09/07 05:37:49;;;;;;;19.42;14.70;;;14.70;20.10;;;;;;5073598;28;20071;-71
2021/09/07 05:40:17;;;;;;;20.00;14.60;;;14.70;19.70;;;;;;5079829;28;20488;-71
2021/09/07 05:42:46;;;;;;;21.40;14.65;;;14.70;19.30;;;;;;5081818;28;20049;-71
2021/09/07 05:45:17;;;;;;;22.05;15.35;;;14.70;19.50;;;;;;5077955;28;20056;-71
2021/09/07 05:47:45;;;;;;;18.15;13.55;;;14.70;18.80;;;;;;5073147;28;20102;-71
2021/09/07 05:50:15;;;;;;;20.45;14.63;;;14.80;18.50;;;;;;5076057;28;20059;-71
2021/09/07 05:52:44;;;;;;;18.98;14.25;;;14.70;18.80;;;;;;5079708;28;20048;-71
2021/09/07 05:55:13;;;;;;;19.23;14.18;;;14.70;19.60;;;;;;5079051;28;20056;-71
2021/09/07 05:57:41;;;;;;;22.95;14.02;;;14.80;19.00;;;;;;5070652;28;20093;-71
2021/09/07 06:00:12;;;;;;;20.15;14.02;;;14.70;18.30;;;;;;5078767;28;20112;-71
2021/09/07 06:02:41;;;;;;;40.75;13.75;;;14.70;19.10;;;;;;5081022;28;20505;-71
2021/09/07 06:05:10;;;;;;;18.40;13.55;;;14.90;18.40;;;;;;5083800;28;20052;-71
2021/09/07 06:07:39;;;;;;;19.90;13.70;;;15.00;18.00;;;;;;5075935;28;20040;-70
2021/09/07 06:10:09;;;;;;;24.38;13.45;;;15.10;17.10;;;;;;5078873;28;20166;-70
2021/09/07 06:12:38;;;;;;;21.40;13.45;;;15.10;14.90;;;;;;5076966;28;20584;-71
2021/09/07 06:15:07;;;;;;;17.75;12.65;;;15.10;15.60;;;;;;5078130;28;20576;-70
2021/09/07 06:17:36;;;;;;;21.33;12.90;;;15.20;15.50;;;;;;5071071;28;20635;-72
2021/09/07 06:20:06;;;;;;;25.38;13.75;;;15.30;15.10;;;;;;5078800;28;20044;-72
2021/09/07 06:22:34;;;;;;;19.58;13.70;;;15.30;15.00;;;;;;5076923;28;20074;-71
2021/09/07 06:25:03;;;;;;;18.60;13.10;;;15.50;13.20;;;;;;5077601;28;20036;-70
2021/09/07 06:27:35;;;;;;;19.70;13.68;;;15.60;12.90;;;;;;5078303;28;20076;-71
2021/09/07 06:30:05;;;;;;;15.80;11.80;;;15.60;12.90;;;;;;5077648;28;20071;-71
2021/09/07 06:32:33;;;;;;;19.83;13.30;;;15.60;12.60;;;;;;5081076;28;20460;-71
2021/09/07 06:35:03;;;;;;;19.70;13.30;;;15.60;12.30;;;;;;5059729;28;20127;-70
2021/09/07 06:37:33;;;;;;;19.58;13.27;;;15.70;11.70;;;;;;5075261;28;20127;-71
2021/09/07 06:40:01;;;;;;;19.80;12.85;;;15.90;10.80;;;;;;5081695;28;20048;-70
2021/09/07 06:42:29;;;;;;;19.77;13.30;;;16.00;10.10;;;;;;5079806;28;20044;-72
2021/09/07 06:44:57;;;;;;;23.63;13.52;;;16.10;8.80;;;;;;5078782;28;20036;-70
2021/09/07 06:47:25;;;;;;;17.42;13.18;;;16.10;8.20;;;;;;5082111;28;20280;-71
2021/09/07 06:49:53;;;;;;;18.55;12.60;;;16.30;8.40;;;;;;5082745;28;20124;-71
2021/09/07 06:52:23;;;;;;;16.60;12.45;;;16.30;7.40;;;;;;5079280;28;20521;-71
2021/09/07 06:54:51;;;;;;;22.20;13.75;;;16.30;6.80;;;;;;5080811;28;20056;-71
2021/09/07 06:57:19;;;;;;;17.08;11.90;;;16.70;6.60;;;;;;5078133;28;20049;-71
2021/09/07 06:59:47;;;;;;;19.42;13.80;;;16.70;6.10;;;;;;5076444;28;20098;-71
2021/09/07 07:02:15;;;;;;;21.90;13.27;;;17.00;5.30;;;;;;5082518;28;20109;-70
2021/09/07 07:04:44;;;;;;;20.35;12.77;;;17.20;3.40;;;;;;5080730;28;20054;-71
2021/09/07 07:07:12;;;;;;;20.48;13.65;;;17.20;2.90;;;;;;5076087;28;20052;-70
2021/09/07 07:09:41;;;;;;;20.88;13.95;;;17.40;2.00;;;;;;5082664;28;20070;-70
2021/09/07 07:12:09;;;;;;;18.88;12.45;;;17.70;1.80;;;;;;5080048;28;20048;-71
2021/09/07 07:14:37;;;;;;;22.38;12.95;;;18.00;1.00;;;;;;5079378;28;20040;-71
2021/09/07 07:17:05;;;;;;;19.67;12.73;;;17.60;1.00;;;;;;5074025;28;20117;-75
2021/09/07 07:19:33;;;;;;;21.00;13.07;;;17.60;1.00;;;;;;5081669;28;20051;-73
2021/09/07 07:22:01;;;;;;;19.98;12.95;;;18.00;1.00;;;;;;5081626;28;20059;-74
2021/09/07 07:24:29;;;;;;;19.65;12.77;;;17.90;1.00;;;;;;5081845;28;20423;-75
2021/09/07 07:27:02;;;;;;;21.20;13.48;;;18.00;1.00;;;;;;5079974;28;20052;-75
2021/09/07 07:29:31;;;;;;;25.13;15.70;;;18.30;1.00;;;;;;5082599;28;20048;-75
2021/09/07 07:31:59;;;;;;;15.50;12.70;;;18.40;1.00;;;;;;5079942;28;20040;-75
2021/09/07 07:34:27;;;;;;;21.20;13.98;;;18.60;1.00;;;;;;5080040;28;20051;-75
2021/09/07 07:36:57;;;;;;;19.15;14.40;;;18.50;1.00;;;;;;5078326;28;20064;-75
2021/09/07 07:39:26;;;;;;;19.77;14.10;;;18.20;1.00;;;;;;5077824;28;20044;-74
2021/09/07 07:41:54;;;;;;;19.98;12.90;;;18.30;1.00;;;;;;5078662;28;20090;-75
2021/09/07 07:44:23;;;;;;;20.80;13.38;;;18.60;1.00;;;;;;5076688;28;20109;-74
2021/09/07 07:46:52;;;;;;;21.98;13.60;;;18.70;1.00;;;;;;5076601;28;20105;-74
2021/09/07 07:49:20;;;;;;;20.45;14.27;;;18.90;1.00;;;;;;5079802;28;20044;-73
2021/09/07 07:51:48;;;;;;;20.33;13.50;;;18.80;1.00;;;;;;5083371;28;20053;-73
2021/09/07 07:54:16;;;;;;;25.83;13.88;;;19.00;1.00;;;;;;5078771;28;20060;-73
2021/09/07 07:56:44;;;;;;;21.35;13.23;;;19.30;1.00;;;;;;5075326;28;20033;-75
2021/09/07 07:59:12;;;;;;;22.23;13.32;;;19.30;1.00;;;;;;5076357;28;20047;-73
2021/09/07 08:01:42;;;;;;;18.25;13.00;;;19.50;1.00;;;;;;5080600;28;20075;-73
2021/09/07 08:04:10;;;;;;;20.83;12.70;;;19.50;1.00;;;;;;5082851;28;20174;-73
2021/09/07 08:06:40;;;;;;;17.25;12.38;;;19.80;1.00;;;;;;5076879;28;20090;-73
2021/09/07 08:09:09;;;;;;;19.42;12.57;;;19.80;1.00;;;;;;5079355;28;20117;-73
2021/09/07 08:11:38;;;;;;;17.35;11.27;;;19.90;1.00;;;;;;5080146;28;20049;-73
2021/09/07 08:14:07;;;;;;;16.35;12.10;;;19.90;1.00;;;;;;5078412;28;20554;-73
2021/09/07 08:16:35;;;;;;;18.80;12.43;;;20.00;1.00;;;;;;5080313;28;20518;-73
2021/09/07 08:19:07;;;;;;;18.50;11.45;;;20.20;1.00;;;;;;5078873;28;20069;-70
2021/09/07 08:21:35;;;;;;;18.40;12.43;;;20.40;1.00;;;;;;5082978;28;20044;-72
2021/09/07 08:24:04;;;;;;;16.70;11.18;;;20.60;1.00;;;;;;5074740;28;20051;-71
2021/09/07 08:26:32;;;;;;;19.58;11.95;;;20.80;1.00;;;;;;5082902;28;20059;-71
2021/09/07 08:29:00;;;;;;;16.15;11.70;;;20.80;1.00;;;;;;5074961;28;20045;-71
2021/09/07 08:31:28;;;;;;;14.10;10.35;;;20.70;1.00;;;;;;5080425;28;20044;-70
2021/09/07 08:33:56;;;;;;;15.27;10.68;;;20.70;1.00;;;;;;5079797;28;20499;-71
2021/09/07 08:36:26;;;;;;;36.42;26.52;;;20.90;1.00;;;;;;5079263;28;20052;-69
2021/09/07 08:38:54;;;;;;;17.05;11.25;;;21.10;1.00;;;;;;5073682;28;20039;-71
2021/09/07 08:41:22;;;;;;;19.38;11.13;;;21.30;1.00;;;;;;5078790;28;20048;-71
2021/09/07 08:43:51;;;;;;;16.77;11.35;;;21.20;1.00;;;;;;5077920;28;20800;-71
2021/09/07 08:46:24;;;;;;;13.95;11.05;;;21.30;1.00;;;;;;5062921;28;20514;-71
2021/09/07 08:49:13;;;;;;;15.23;10.15;;;21.80;1.00;;;;;;5077955;28;20475;-69
2021/09/07 08:51:44;;;;;;;12.32;10.02;;;21.40;1.00;;;;;;5080196;28;20063;-70
2021/09/07 08:54:12;;;;;;;19.90;10.15;;;21.80;1.00;;;;;;5079906;28;20059;-70
2021/09/07 08:56:52;;;;;;;12.63;10.82;;;21.30;1.00;;;;;;5069917;28;20070;-71
2021/09/07 08:59:20;;;;;;;16.95;10.75;;;21.40;1.00;;;;;;5077348;28;20032;-71
2021/09/07 09:01:52;;;;;;;12.65;8.48;;;21.60;1.00;;;;;;5083012;28;20648;-71
2021/09/07 09:04:29;;;;;;;12.52;9.23;;;21.80;1.00;;;;;;5079431;28;20444;-71
2021/09/07 09:06:59;;;;;;;12.18;10.13;;;21.80;1.00;;;;;;5073687;28;21578;-71
2021/09/07 09:09:36;;;;;;;15.27;10.05;;;21.60;1.00;;;;;;5078528;28;20610;-71
2021/09/07 09:12:06;;;;;;;14.68;9.95;;;21.60;1.00;;;;;;5077330;28;20063;-71
2021/09/07 09:14:37;;;;;;;13.00;10.38;;;21.90;1.00;;;;;;5075658;28;20044;-70
2021/09/07 09:17:22;;;;;;;17.80;10.27;;;22.10;1.00;;;;;;5071134;28;20336;-70
2021/09/07 09:19:53;;;;;;;12.02;10.32;;;22.20;1.00;;;;;;5077270;28;20049;-71
2021/09/07 09:22:41;;;;;;;16.50;10.90;;;21.90;1.00;;;;;;5082533;28;20056;-71
2021/09/07 09:25:28;;;;;;;13.57;9.00;;;22.10;1.00;;;;;;5075868;28;20040;-70
2021/09/07 09:28:21;;;;;;;14.82;10.32;;;21.90;1.00;;;;;;5078069;28;20071;-71
2021/09/07 09:30:52;;;;;;;20.25;9.55;;;22.20;1.00;;;;;;5079576;28;20044;-71
2021/09/07 09:33:22;;;;;;;11.98;8.02;;;22.80;1.00;;;;;;5059903;28;20110;-71
2021/09/07 09:35:53;;;;;;;12.68;8.38;;;22.90;1.00;;;;;;5071966;28;20052;-71
2021/09/07 09:38:25;;;;;;;12.73;8.90;;;23.00;1.00;;;;;;5076372;28;20052;-71
2021/09/07 09:40:55;;;;;;;12.10;8.77;;;23.00;1.00;;;;;;5077778;28;20044;-71
2021/09/07 09:43:38;;;;;;;10.93;7.78;;;23.30;1.00;;;;;;5074813;28;20041;-70
2021/09/07 09:46:23;;;;;;;11.07;7.65;;;23.00;1.00;;;;;;5033155;28;20519;-71
2021/09/07 09:48:53;;;;;;;11.95;8.35;;;23.40;1.00;;;;;;5055347;28;20083;-70
2021/09/07 09:51:23;;;;;;;9.82;7.45;;;23.20;1.00;;;;;;5061517;28;20106;-71
2021/09/07 09:53:56;;;;;;;8.48;7.07;;;23.10;1.00;;;;;;5077276;28;20044;-71
2021/09/07 09:56:24;;;;;;;11.32;7.57;;;23.40;1.00;;;;;;5056112;28;20108;-71
2021/09/07 09:58:53;;;;;;;9.07;6.75;;;23.50;1.00;;;;;;5062064;28;20116;-71
2021/09/07 10:01:21;;;;;;;11.85;7.38;;;23.80;1.00;;;;;;5074914;28;20045;-70
2021/09/07 10:03:50;;;;;;;11.13;7.47;;;23.90;1.00;;;;;;5052954;28;20048;-69
2021/09/07 10:06:20;;;;;;;12.43;7.13;;;23.90;1.00;;;;;;5059503;28;20049;-71
2021/09/07 10:08:48;;;;;;;10.18;7.53;;;23.90;1.00;;;;;;5056464;28;20036;-71
2021/09/07 10:11:21;;;;;;;14.68;7.03;;;24.10;1.00;;;;;;5065211;28;20044;-71
2021/09/07 10:13:54;;;;;;;12.38;7.35;;;24.00;1.00;;;;;;5062987;28;20080;-71
2021/09/07 10:16:36;;;;;;;12.02;7.18;;;23.90;1.00;;;;;;5064278;28;20040;-70
2021/09/07 10:19:13;;;;;;;10.70;7.53;;;24.20;1.00;;;;;;5052422;28;20053;-71
2021/09/07 10:24:54;;;;;;;8.02;7.22;;;24.40;1.00;;;;;;5059966;28;20232;-71
2021/09/07 10:28:02;;;;;;;10.00;8.02;;;24.20;1.00;;;;;;5058908;28;20064;-70
2021/09/07 10:30:56;;;;;;;10.93;7.63;;;24.10;1.00;;;;;;5062722;28;20511;-71
2021/09/07 10:33:36;;;;;;;14.88;7.88;;;24.20;1.00;;;;;;5055797;28;20431;-71
2021/09/07 10:36:18;;;;;;;12.07;8.10;;;24.50;1.00;;;;;;5062684;28;20068;-69
2021/09/07 10:38:48;;;;;;;12.85;7.03;;;24.70;1.00;;;;;;5074025;28;20048;-71
2021/09/07 10:41:47;;;;;;;9.50;7.15;;;24.80;1.00;;;;;;5070057;28;20053;-71
2021/09/07 10:44:32;;;;;;;10.20;7.43;;;24.80;1.00;;;;;;5052486;28;20076;-71
2021/09/07 10:47:03;;;;;;;9.05;7.45;;;24.90;1.00;;;;;;5059447;28;20053;-71
2021/09/07 10:49:47;;;;;;;10.60;7.43;;;25.10;1.00;;;;;;5058055;28;20110;-71
2021/09/07 10:52:34;;;;;;;15.40;7.27;;;24.90;1.00;;;;;;5063461;28;20065;-71
2021/09/07 10:55:15;;;;;;;10.65;8.38;;;25.10;1.00;;;;;;5057165;28;20332;-71
2021/09/07 10:58:02;;;;;;;8.93;7.32;;;24.40;1.00;;;;;;5058375;28;20048;-72
2021/09/07 11:00:52;;;;;;;11.77;7.22;;;24.60;1.00;;;;;;5057067;28;20048;-72
2021/09/07 11:03:25;;;;;;;9.73;7.22;;;25.00;1.00;;;;;;5061397;28;20040;-71
2021/09/07 11:05:54;;;;;;;12.60;9.18;;;24.80;1.00;;;;;;5063479;28;20040;-72
2021/09/07 11:08:43;;;;;;;10.57;7.57;;;25.30;1.00;;;;;;5055615;28;20060;-72
2021/09/07 11:11:23;;;;;;;12.50;8.20;;;25.60;1.00;;;;;;5061750;28;20045;-71
2021/09/07 11:13:54;;;;;;;9.65;7.40;;;25.20;1.00;;;;;;5063444;28;20492;-71
2021/09/07 11:16:23;;;;;;;10.60;8.15;;;25.50;1.00;;;;;;5064644;28;20055;-71
2021/09/07 11:19:01;;;;;;;8.38;6.93;;;25.50;1.00;;;;;;5057686;28;20542;-71
2021/09/07 11:21:29;;;;;;;10.73;7.55;;;25.80;1.00;;;;;;5065635;28;20055;-71
2021/09/07 11:24:00;;;;;;;8.40;6.80;;;25.40;1.00;;;;;;5060954;28;20242;-71
2021/09/07 11:26:29;;;;;;;12.02;7.82;;;25.60;1.00;;;;;;5062953;28;20091;-71
2021/09/07 11:28:58;;;;;;;12.88;7.97;;;25.40;1.00;;;;;;5055941;28;20404;-70
2021/09/07 11:31:27;;;;;;;8.77;6.93;;;25.30;1.00;;;;;;5063963;28;20061;-71
2021/09/07 11:33:55;;;;;;;9.38;6.93;;;25.70;1.00;;;;;;5059510;28;20510;-71
2021/09/07 11:36:23;;;;;;;8.60;6.53;;;25.40;1.00;;;;;;5085983;28;20048;-71
2021/09/07 11:38:52;;;;;;;8.82;6.93;;;25.70;1.00;;;;;;5073007;28;20105;-71
2021/09/07 11:41:21;;;;;;;14.13;6.95;;;25.70;1.00;;;;;;5083324;28;20082;-71
2021/09/07 11:43:52;;;;;;;8.13;6.75;;;25.40;1.00;;;;;;5081544;28;20052;-72
2021/09/07 11:46:21;;;;;;;7.00;6.30;;;25.80;1.00;;;;;;5083703;28;20097;-71
2021/09/07 11:48:53;;;;;;;9.88;6.22;;;25.50;1.00;;;;;;5059853;28;20053;-70
2021/09/07 11:51:26;;;;;;;9.20;6.25;;;25.80;1.00;;;;;;5082549;28;20094;-71
2021/09/07 11:53:55;;;;;;;7.30;6.15;;;25.70;1.00;;;;;;5081788;28;20072;-72
2021/09/07 11:56:26;;;;;;;7.88;6.95;;;25.60;1.00;;;;;;5085569;28;20105;-71
2021/09/07 11:59:09;;;;;;;7.80;6.90;;;25.60;1.00;;;;;;5074634;28;20097;-72
2021/09/07 12:01:39;;;;;;;8.07;6.57;;;25.90;1.00;;;;;;5083960;28;20097;-73
2021/09/07 12:04:13;;;;;;;8.55;6.70;;;25.80;1.00;;;;;;5079425;28;20147;-72
2021/09/07 12:06:44;;;;;;;8.40;7.05;;;26.00;1.00;;;;;;5080731;28;20134;-73
2021/09/07 12:09:16;;;;;;;9.90;6.80;;;26.00;1.00;;;;;;5073697;28;20566;-71
2021/09/07 12:11:46;;;;;;;10.00;6.22;;;26.00;1.00;;;;;;5063809;28;20178;-71
2021/09/07 12:14:16;;;;;;;8.15;6.63;;;25.80;1.00;;;;;;5081694;28;20412;-72
2021/09/07 12:16:53;;;;;;;10.25;6.28;;;25.80;1.00;;;;;;5078623;28;20179;-71
2021/09/07 12:19:33;;;;;;;9.02;7.53;;;26.10;1.00;;;;;;5080328;28;20044;-72
2021/09/07 12:22:18;;;;;;;7.53;6.72;;;26.10;1.00;;;;;;5065103;28;20047;-71
2021/09/07 12:25:00;;;;;;;10.25;7.22;;;25.70;1.00;;;;;;5062311;28;20137;-73
2021/09/07 12:27:40;;;;;;;8.13;6.35;;;25.90;1.00;;;;;;5054688;28;20180;-71
2021/09/07 12:30:12;;;;;;;9.20;6.97;;;26.00;1.00;;;;;;5080671;28;20514;-70
2021/09/07 12:32:58;;;;;;;7.43;6.55;;;26.30;1.00;;;;;;5078519;28;20130;-73
2021/09/07 12:35:40;;;;;;;8.32;5.80;;;26.20;1.00;;;;;;5079004;28;20066;-70
2021/09/07 12:38:10;;;;;;;8.57;6.00;;;26.00;1.00;;;;;;5075247;28;20048;-71
2021/09/07 12:40:41;;;;;;;10.38;6.22;;;26.30;1.00;;;;;;5078068;28;20571;-72
2021/09/07 12:43:14;;;;;;;7.15;5.93;;;26.30;1.00;;;;;;5060050;28;20163;-71
2021/09/07 12:45:43;;;;;;;8.48;6.35;;;26.30;1.00;;;;;;5079271;28;20044;-71
2021/09/07 12:48:15;;;;;;;7.80;6.80;;;26.20;1.00;;;;;;5073666;28;20044;-71
2021/09/07 12:50:46;;;;;;;9.27;6.18;;;26.10;1.00;;;;;;5058072;28;20093;-71
2021/09/07 12:53:19;;;;;;;11.57;6.55;;;26.10;1.00;;;;;;5078967;28;20052;-70
2021/09/07 12:56:03;;;;;;;9.80;6.75;;;25.80;1.00;;;;;;5078152;28;20506;-71